sensor_id;sensor_type;location;lat;lon;timestamp;temperature;humidity
65324;SHT31;51937;48.364;11.378;2022-09-03T00:01:58;17.91;46.61
65324;SHT31;51937;48.364;11.378;2022-09-03T00:04:33;17.91;46.68
65324;SHT31;51937;48.364;11.378;2022-09-03T00:07:04;17.96;46.66
65324;SHT31;51937;48.364;11.378;2022-09-03T00:09:38;18.00;46.79
65324;SHT31;51937;48.364;11.378;2022-09-03T00:12:35;17.97;46.83
65324;SHT31;51937;48.364;11.378;2022-09-03T00:15:27;17.98;46.82
65324;SHT31;51937;48.364;11.378;2022-09-03T00:18:01;18.06;46.74
65324;SHT31;51937;48.364;11.378;2022-09-03T00:20:38;18.07;46.76
65324;SHT31;51937;48.364;11.378;2022-09-03T00:23:08;18.11;46.74
65324;SHT31;51937;48.364;11.378;2022-09-03T00:25:48;18.11;46.74
65324;SHT31;51937;48.364;11.378;2022-09-03T00:28:21;18.15;46.74
65324;SHT31;51937;48.364;11.378;2022-09-03T00:30:51;18.18;46.75
65324;SHT31;51937;48.364;11.378;2022-09-03T00:33:24;18.21;46.83
65324;SHT31;51937;48.364;11.378;2022-09-03T00:38:28;18.20;46.88
65324;SHT31;51937;48.364;11.378;2022-09-03T00:46:25;18.15;47.04
65324;SHT31;51937;48.364;11.378;2022-09-03T00:49:27;18.11;47.22
65324;SHT31;51937;48.364;11.378;2022-09-03T00:52:06;18.14;47.06
65324;SHT31;51937;48.364;11.378;2022-09-03T01:00:12;18.07;47.15
65324;SHT31;51937;48.364;11.378;2022-09-03T01:03:00;18.04;47.29
65324;SHT31;51937;48.364;11.378;2022-09-03T01:18:06;17.85;47.45
65324;SHT31;51937;48.364;11.378;2022-09-03T01:23:38;17.94;47.32
65324;SHT31;51937;48.364;11.378;2022-09-03T01:32:10;18.01;47.40
65324;SHT31;51937;48.364;11.378;2022-09-03T01:35:01;18.00;47.43
65324;SHT31;51937;48.364;11.378;2022-09-03T01:37:42;17.98;47.52
65324;SHT31;51937;48.364;11.378;2022-09-03T01:40:30;17.97;47.59
65324;SHT31;51937;48.364;11.378;2022-09-03T01:45:59;17.93;47.61
65324;SHT31;51937;48.364;11.378;2022-09-03T01:51:23;17.86;47.87
65324;SHT31;51937;48.364;11.378;2022-09-03T01:59:41;17.53;47.90
65324;SHT31;51937;48.364;11.378;2022-09-03T02:02:15;17.55;47.93
65324;SHT31;51937;48.364;11.378;2022-09-03T02:07:34;17.42;48.16
65324;SHT31;51937;48.364;11.378;2022-09-03T02:10:02;17.35;48.27
65324;SHT31;51937;48.364;11.378;2022-09-03T02:12:32;17.25;48.39
65324;SHT31;51937;48.364;11.378;2022-09-03T02:15:00;17.20;48.44
65324;SHT31;51937;48.364;11.378;2022-09-03T02:17:29;17.14;48.53
65324;SHT31;51937;48.364;11.378;2022-09-03T02:19:55;17.07;48.62
65324;SHT31;51937;48.364;11.378;2022-09-03T02:22:21;17.03;48.71
65324;SHT31;51937;48.364;11.378;2022-09-03T02:24:46;16.96;48.81
65324;SHT31;51937;48.364;11.378;2022-09-03T02:27:12;16.94;48.87
65324;SHT31;51937;48.364;11.378;2022-09-03T02:29:37;16.87;48.92
65324;SHT31;51937;48.364;11.378;2022-09-03T02:32:02;16.83;48.97
65324;SHT31;51937;48.364;11.378;2022-09-03T02:34:28;16.77;49.02
65324;SHT31;51937;48.364;11.378;2022-09-03T02:36:54;16.77;49.07
65324;SHT31;51937;48.364;11.378;2022-09-03T02:39:19;16.72;49.12
65324;SHT31;51937;48.364;11.378;2022-09-03T02:41:50;16.69;49.22
65324;SHT31;51937;48.364;11.378;2022-09-03T02:44:29;16.65;49.37
65324;SHT31;51937;48.364;11.378;2022-09-03T02:46:59;16.65;49.34
65324;SHT31;51937;48.364;11.378;2022-09-03T02:49:25;16.63;49.35
65324;SHT31;51937;48.364;11.378;2022-09-03T02:51:57;16.61;49.49
65324;SHT31;51937;48.364;11.378;2022-09-03T02:54:25;16.62;49.45
65324;SHT31;51937;48.364;11.378;2022-09-03T02:56:51;16.61;49.47
65324;SHT31;51937;48.364;11.378;2022-09-03T02:59:16;16.59;49.50
65324;SHT31;51937;48.364;11.378;2022-09-03T03:01:42;16.58;49.52
65324;SHT31;51937;48.364;11.378;2022-09-03T03:04:07;16.58;49.61
65324;SHT31;51937;48.364;11.378;2022-09-03T03:06:33;16.53;49.64
65324;SHT31;51937;48.364;11.378;2022-09-03T03:08:58;16.51;49.74
65324;SHT31;51937;48.364;11.378;2022-09-03T03:11:24;16.47;49.79
65324;SHT31;51937;48.364;11.378;2022-09-03T03:13:50;16.45;49.85
65324;SHT31;51937;48.364;11.378;2022-09-03T03:16:16;16.42;49.91
65324;SHT31;51937;48.364;11.378;2022-09-03T03:18:41;16.36;49.94
65324;SHT31;51937;48.364;11.378;2022-09-03T03:21:12;16.32;50.05
65324;SHT31;51937;48.364;11.378;2022-09-03T03:23:38;16.29;50.00
65324;SHT31;51937;48.364;11.378;2022-09-03T03:26:06;16.24;50.09
65324;SHT31;51937;48.364;11.378;2022-09-03T03:28:32;16.20;50.11
65324;SHT31;51937;48.364;11.378;2022-09-03T03:31:04;16.15;50.16
65324;SHT31;51937;48.364;11.378;2022-09-03T03:33:29;16.13;50.23
65324;SHT31;51937;48.364;11.378;2022-09-03T03:35:54;16.08;50.29
65324;SHT31;51937;48.364;11.378;2022-09-03T03:38:20;16.03;50.31
65324;SHT31;51937;48.364;11.378;2022-09-03T03:40:45;16.00;50.40
65324;SHT31;51937;48.364;11.378;2022-09-03T03:43:11;15.98;50.43
65324;SHT31;51937;48.364;11.378;2022-09-03T03:45:36;15.91;50.49
65324;SHT31;51937;48.364;11.378;2022-09-03T03:48:01;15.93;50.54
65324;SHT31;51937;48.364;11.378;2022-09-03T03:50:27;15.90;50.63
65324;SHT31;51937;48.364;11.378;2022-09-03T03:52:52;15.87;50.62
65324;SHT31;51937;48.364;11.378;2022-09-03T03:55:17;15.85;50.68
65324;SHT31;51937;48.364;11.378;2022-09-03T03:57:43;15.82;50.72
65324;SHT31;51937;48.364;11.378;2022-09-03T04:00:08;15.82;50.72
65324;SHT31;51937;48.364;11.378;2022-09-03T04:02:34;15.79;50.79
65324;SHT31;51937;48.364;11.378;2022-09-03T04:04:59;15.79;50.77
65324;SHT31;51937;48.364;11.378;2022-09-03T04:07:25;15.79;50.76
65324;SHT31;51937;48.364;11.378;2022-09-03T04:09:50;15.82;50.79
65324;SHT31;51937;48.364;11.378;2022-09-03T04:12:16;15.85;50.69
65324;SHT31;51937;48.364;11.378;2022-09-03T04:14:42;15.89;50.72
65324;SHT31;51937;48.364;11.378;2022-09-03T04:17:07;15.87;50.73
65324;SHT31;51937;48.364;11.378;2022-09-03T04:19:32;15.87;50.79
65324;SHT31;51937;48.364;11.378;2022-09-03T04:21:58;15.87;50.85
65324;SHT31;51937;48.364;11.378;2022-09-03T04:24:23;15.87;50.87
65324;SHT31;51937;48.364;11.378;2022-09-03T04:26:48;15.89;50.87
65324;SHT31;51937;48.364;11.378;2022-09-03T04:29:18;15.87;50.86
65324;SHT31;51937;48.364;11.378;2022-09-03T04:31:43;15.93;50.87
65324;SHT31;51937;48.364;11.378;2022-09-03T04:34:29;16.01;50.71
65324;SHT31;51937;48.364;11.378;2022-09-03T04:36:54;16.07;50.68
65324;SHT31;51937;48.364;11.378;2022-09-03T04:39:21;16.17;50.55
65324;SHT31;51937;48.364;11.378;2022-09-03T04:41:46;16.24;50.47
65324;SHT31;51937;48.364;11.378;2022-09-03T04:44:12;16.29;50.49
65324;SHT31;51937;48.364;11.378;2022-09-03T04:46:37;16.36;50.46
65324;SHT31;51937;48.364;11.378;2022-09-03T04:49:04;16.42;50.43
65324;SHT31;51937;48.364;11.378;2022-09-03T04:51:31;16.49;50.44
65324;SHT31;51937;48.364;11.378;2022-09-03T04:54:00;16.56;50.51
65324;SHT31;51937;48.364;11.378;2022-09-03T04:56:31;16.59;50.53
65324;SHT31;51937;48.364;11.378;2022-09-03T04:59:05;16.65;50.60
65324;SHT31;51937;48.364;11.378;2022-09-03T05:01:32;16.75;50.55
65324;SHT31;51937;48.364;11.378;2022-09-03T05:03:58;16.76;50.51
65324;SHT31;51937;48.364;11.378;2022-09-03T05:06:24;16.86;50.51
65324;SHT31;51937;48.364;11.378;2022-09-03T05:08:52;16.91;50.50
65324;SHT31;51937;48.364;11.378;2022-09-03T05:11:18;17.02;50.49
65324;SHT31;51937;48.364;11.378;2022-09-03T05:13:47;17.03;50.51
65324;SHT31;51937;48.364;11.378;2022-09-03T05:16:13;17.11;50.52
65324;SHT31;51937;48.364;11.378;2022-09-03T05:18:38;17.11;50.55
65324;SHT31;51937;48.364;11.378;2022-09-03T05:21:09;17.14;50.64
65324;SHT31;51937;48.364;11.378;2022-09-03T05:23:36;17.23;50.62
65324;SHT31;51937;48.364;11.378;2022-09-03T05:26:05;17.34;50.50
65324;SHT31;51937;48.364;11.378;2022-09-03T05:28:36;17.41;50.47
65324;SHT31;51937;48.364;11.378;2022-09-03T05:31:04;17.46;50.55
65324;SHT31;51937;48.364;11.378;2022-09-03T05:33:33;17.52;50.62
65324;SHT31;51937;48.364;11.378;2022-09-03T05:36:01;17.62;50.59
65324;SHT31;51937;48.364;11.378;2022-09-03T05:38:26;17.70;50.52
65324;SHT31;51937;48.364;11.378;2022-09-03T05:40:52;17.80;50.37
65324;SHT31;51937;48.364;11.378;2022-09-03T05:43:17;17.90;50.30
65324;SHT31;51937;48.364;11.378;2022-09-03T05:45:44;18.00;50.19
65324;SHT31;51937;48.364;11.378;2022-09-03T05:48:09;18.10;50.06
65324;SHT31;51937;48.364;11.378;2022-09-03T05:50:34;18.17;49.99
65324;SHT31;51937;48.364;11.378;2022-09-03T05:53:00;18.25;49.92
65324;SHT31;51937;48.364;11.378;2022-09-03T05:55:25;18.34;49.84
65324;SHT31;51937;48.364;11.378;2022-09-03T05:57:52;18.47;49.78
65324;SHT31;51937;48.364;11.378;2022-09-03T06:00:19;18.53;49.75
65324;SHT31;51937;48.364;11.378;2022-09-03T06:02:51;18.61;49.76
65324;SHT31;51937;48.364;11.378;2022-09-03T06:05:17;18.73;49.64
65324;SHT31;51937;48.364;11.378;2022-09-03T06:07:43;18.80;49.58
65324;SHT31;51937;48.364;11.378;2022-09-03T06:10:08;18.92;49.54
65324;SHT31;51937;48.364;11.378;2022-09-03T06:12:35;19.03;49.45
65324;SHT31;51937;48.364;11.378;2022-09-03T06:15:01;19.17;49.27
65324;SHT31;51937;48.364;11.378;2022-09-03T06:17:26;19.35;49.05
65324;SHT31;51937;48.364;11.378;2022-09-03T06:19:51;19.61;48.80
65324;SHT31;51937;48.364;11.378;2022-09-03T06:22:17;19.79;48.58
65324;SHT31;51937;48.364;11.378;2022-09-03T06:24:42;20.00;48.34
65324;SHT31;51937;48.364;11.378;2022-09-03T06:27:08;20.18;48.23
65324;SHT31;51937;48.364;11.378;2022-09-03T06:29:33;20.33;48.16
65324;SHT31;51937;48.364;11.378;2022-09-03T06:31:59;20.42;48.09
65324;SHT31;51937;48.364;11.378;2022-09-03T06:34:29;20.47;48.17
65324;SHT31;51937;48.364;11.378;2022-09-03T06:36:54;20.49;48.20
65324;SHT31;51937;48.364;11.378;2022-09-03T06:39:19;20.47;48.19
65324;SHT31;51937;48.364;11.378;2022-09-03T06:41:45;20.47;48.13
65324;SHT31;51937;48.364;11.378;2022-09-03T06:44:15;20.48;48.13
65324;SHT31;51937;48.364;11.378;2022-09-03T06:46:41;20.51;48.11
65324;SHT31;51937;48.364;11.378;2022-09-03T06:49:06;20.53;48.03
65324;SHT31;51937;48.364;11.378;2022-09-03T06:51:32;20.56;48.12
65324;SHT31;51937;48.364;11.378;2022-09-03T06:54:00;20.56;48.16
65324;SHT31;51937;48.364;11.378;2022-09-03T06:56:26;20.58;48.29
65324;SHT31;51937;48.364;11.378;2022-09-03T06:58:55;20.53;48.39
65324;SHT31;51937;48.364;11.378;2022-09-03T07:01:26;20.52;48.48
65324;SHT31;51937;48.364;11.378;2022-09-03T07:03:56;20.52;48.57
65324;SHT31;51937;48.364;11.378;2022-09-03T07:06:36;20.52;48.63
65324;SHT31;51937;48.364;11.378;2022-09-03T07:09:03;20.52;48.59
65324;SHT31;51937;48.364;11.378;2022-09-03T07:11:29;20.59;48.57
65324;SHT31;51937;48.364;11.378;2022-09-03T07:13:58;20.62;48.59
65324;SHT31;51937;48.364;11.378;2022-09-03T07:16:26;20.67;48.80
65324;SHT31;51937;48.364;11.378;2022-09-03T07:18:52;20.72;48.79
65324;SHT31;51937;48.364;11.378;2022-09-03T07:21:23;20.72;48.93
65324;SHT31;51937;48.364;11.378;2022-09-03T07:23:50;20.78;48.82
65324;SHT31;51937;48.364;11.378;2022-09-03T07:26:19;20.83;48.81
65324;SHT31;51937;48.364;11.378;2022-09-03T07:28:45;20.89;48.86
65324;SHT31;51937;48.364;11.378;2022-09-03T07:31:31;20.92;48.89
65324;SHT31;51937;48.364;11.378;2022-09-03T07:33:59;20.97;48.86
65324;SHT31;51937;48.364;11.378;2022-09-03T07:36:27;20.96;48.88
65324;SHT31;51937;48.364;11.378;2022-09-03T07:38:58;20.97;48.91
65324;SHT31;51937;48.364;11.378;2022-09-03T07:41:24;20.99;48.86
65324;SHT31;51937;48.364;11.378;2022-09-03T07:43:50;20.96;48.91
65324;SHT31;51937;48.364;11.378;2022-09-03T07:46:21;20.95;48.87
65324;SHT31;51937;48.364;11.378;2022-09-03T07:48:56;20.93;48.87
65324;SHT31;51937;48.364;11.378;2022-09-03T07:51:24;20.95;48.85
65324;SHT31;51937;48.364;11.378;2022-09-03T07:53:51;20.96;48.85
65324;SHT31;51937;48.364;11.378;2022-09-03T07:56:17;20.99;48.81
65324;SHT31;51937;48.364;11.378;2022-09-03T07:58:42;21.02;48.80
65324;SHT31;51937;48.364;11.378;2022-09-03T08:01:13;21.10;48.73
65324;SHT31;51937;48.364;11.378;2022-09-03T08:03:43;21.13;48.64
65324;SHT31;51937;48.364;11.378;2022-09-03T08:06:09;21.23;48.51
65324;SHT31;51937;48.364;11.378;2022-09-03T08:08:36;21.30;48.47
65324;SHT31;51937;48.364;11.378;2022-09-03T08:11:13;21.37;48.49
65324;SHT31;51937;48.364;11.378;2022-09-03T08:13:40;21.45;48.49
65324;SHT31;51937;48.364;11.378;2022-09-03T08:16:08;21.54;48.44
65324;SHT31;51937;48.364;11.378;2022-09-03T08:18:35;21.66;48.37
65324;SHT31;51937;48.364;11.378;2022-09-03T08:21:13;21.78;48.35
65324;SHT31;51937;48.364;11.378;2022-09-03T08:23:41;21.89;48.30
65324;SHT31;51937;48.364;11.378;2022-09-03T08:26:07;22.00;48.26
65324;SHT31;51937;48.364;11.378;2022-09-03T08:28:34;22.14;48.17
65324;SHT31;51937;48.364;11.378;2022-09-03T08:31:14;22.30;48.11
65324;SHT31;51937;48.364;11.378;2022-09-03T08:33:42;22.47;47.92
65324;SHT31;51937;48.364;11.378;2022-09-03T08:36:14;22.64;47.87
65324;SHT31;51937;48.364;11.378;2022-09-03T08:38:40;22.78;47.80
65324;SHT31;51937;48.364;11.378;2022-09-03T08:46:33;23.34;47.37
65324;SHT31;51937;48.364;11.378;2022-09-03T08:49:00;23.58;47.16
65324;SHT31;51937;48.364;11.378;2022-09-03T08:51:26;23.79;47.09
65324;SHT31;51937;48.364;11.378;2022-09-03T08:53:53;24.08;46.74
65324;SHT31;51937;48.364;11.378;2022-09-03T08:56:31;24.27;46.60
65324;SHT31;51937;48.364;11.378;2022-09-03T08:58:59;24.44;46.53
65324;SHT31;51937;48.364;11.378;2022-09-03T09:04:15;24.64;46.61
65324;SHT31;51937;48.364;11.378;2022-09-03T09:06:58;24.74;46.52
65324;SHT31;51937;48.364;11.378;2022-09-03T09:14:44;25.19;46.27
65324;SHT31;51937;48.364;11.378;2022-09-03T09:17:44;25.36;46.15
65324;SHT31;51937;48.364;11.378;2022-09-03T09:22:55;25.73;45.84
65324;SHT31;51937;48.364;11.378;2022-09-03T09:25:23;25.82;45.84
65324;SHT31;51937;48.364;11.378;2022-09-03T09:27:55;25.84;45.83
65324;SHT31;51937;48.364;11.378;2022-09-03T09:30:21;25.89;46.00
65324;SHT31;51937;48.364;11.378;2022-09-03T09:32:46;25.91;46.08
65324;SHT31;51937;48.364;11.378;2022-09-03T09:35:12;26.05;45.91
65324;SHT31;51937;48.364;11.378;2022-09-03T09:37:48;26.20;45.57
65324;SHT31;51937;48.364;11.378;2022-09-03T09:43:04;26.53;45.30
65324;SHT31;51937;48.364;11.378;2022-09-03T09:45:30;26.68;45.13
65324;SHT31;51937;48.364;11.378;2022-09-03T09:47:58;26.80;45.27
65324;SHT31;51937;48.364;11.378;2022-09-03T09:50:23;26.87;45.16
65324;SHT31;51937;48.364;11.378;2022-09-03T09:52:59;26.95;45.27
65324;SHT31;51937;48.364;11.378;2022-09-03T09:55:25;27.12;45.23
65324;SHT31;51937;48.364;11.378;2022-09-03T09:58:03;27.28;45.07
65324;SHT31;51937;48.364;11.378;2022-09-03T10:00:29;27.45;45.05
65324;SHT31;51937;48.364;11.378;2022-09-03T10:02:58;27.56;45.06
65324;SHT31;51937;48.364;11.378;2022-09-03T10:05:26;27.66;45.13
65324;SHT31;51937;48.364;11.378;2022-09-03T10:07:59;27.80;44.99
65324;SHT31;51937;48.364;11.378;2022-09-03T10:10:26;28.00;44.75
65324;SHT31;51937;48.364;11.378;2022-09-03T10:16:03;28.25;44.65
65324;SHT31;51937;48.364;11.378;2022-09-03T10:18:43;28.36;44.54
65324;SHT31;51937;48.364;11.378;2022-09-03T10:21:19;28.45;44.22
65324;SHT31;51937;48.364;11.378;2022-09-03T10:26:42;28.61;44.06
65324;SHT31;51937;48.364;11.378;2022-09-03T10:29:11;28.67;43.96
65324;SHT31;51937;48.364;11.378;2022-09-03T10:37:43;28.67;43.88
65324;SHT31;51937;48.364;11.378;2022-09-03T10:45:51;28.52;44.04
65324;SHT31;51937;48.364;11.378;2022-09-03T10:50:45;28.45;44.16
65324;SHT31;51937;48.364;11.378;2022-09-03T10:53:45;28.46;43.99
65324;SHT31;51937;48.364;11.378;2022-09-03T10:59:31;28.68;43.67
65324;SHT31;51937;48.364;11.378;2022-09-03T11:02:15;28.81;43.41
65324;SHT31;51937;48.364;11.378;2022-09-03T11:04:57;28.94;43.29
65324;SHT31;51937;48.364;11.378;2022-09-03T11:07:35;29.08;43.22
65324;SHT31;51937;48.364;11.378;2022-09-03T11:13:10;29.37;43.16
65324;SHT31;51937;48.364;11.378;2022-09-03T11:15:50;29.55;42.84
65324;SHT31;51937;48.364;11.378;2022-09-03T11:18:21;29.77;42.50
65324;SHT31;51937;48.364;11.378;2022-09-03T11:20:50;29.92;42.40
65324;SHT31;51937;48.364;11.378;2022-09-03T11:23:18;30.02;42.25
65324;SHT31;51937;48.364;11.378;2022-09-03T11:25:53;30.01;42.35
65324;SHT31;51937;48.364;11.378;2022-09-03T11:28:40;29.98;42.61
65324;SHT31;51937;48.364;11.378;2022-09-03T11:31:19;30.07;42.44
65324;SHT31;51937;48.364;11.378;2022-09-03T11:33:56;30.26;42.36
65324;SHT31;51937;48.364;11.378;2022-09-03T11:36:29;30.51;41.83
65324;SHT31;51937;48.364;11.378;2022-09-03T11:38:55;30.70;41.54
65324;SHT31;51937;48.364;11.378;2022-09-03T11:41:33;30.84;41.36
65324;SHT31;51937;48.364;11.378;2022-09-03T11:44:17;31.00;41.38
65324;SHT31;51937;48.364;11.378;2022-09-03T11:46:57;31.11;41.22
65324;SHT31;51937;48.364;11.378;2022-09-03T11:49:32;31.25;40.98
65324;SHT31;51937;48.364;11.378;2022-09-03T11:52:03;31.41;40.74
65324;SHT31;51937;48.364;11.378;2022-09-03T11:54:42;31.49;40.64
65324;SHT31;51937;48.364;11.378;2022-09-03T11:57:11;31.52;40.56
65324;SHT31;51937;48.364;11.378;2022-09-03T11:59:39;31.41;40.72
65324;SHT31;51937;48.364;11.378;2022-09-03T12:12:38;30.84;40.97
65324;SHT31;51937;48.364;11.378;2022-09-03T12:15:49;30.66;40.92
65324;SHT31;51937;48.364;11.378;2022-09-03T12:18:33;30.53;40.94
65324;SHT31;51937;48.364;11.378;2022-09-03T12:23:47;30.33;40.90
65324;SHT31;51937;48.364;11.378;2022-09-03T12:28:45;30.32;40.90
65324;SHT31;51937;48.364;11.378;2022-09-03T12:31:18;30.37;40.70
65324;SHT31;51937;48.364;11.378;2022-09-03T12:33:59;30.35;40.78
65324;SHT31;51937;48.364;11.378;2022-09-03T12:36:35;30.43;40.69
65324;SHT31;51937;48.364;11.378;2022-09-03T12:39:23;30.45;40.81
65324;SHT31;51937;48.364;11.378;2022-09-03T12:42:07;30.57;40.72
65324;SHT31;51937;48.364;11.378;2022-09-03T12:47:21;30.77;40.52
65324;SHT31;51937;48.364;11.378;2022-09-03T12:49:48;30.86;40.37
65324;SHT31;51937;48.364;11.378;2022-09-03T12:52:22;30.91;40.35
65324;SHT31;51937;48.364;11.378;2022-09-03T12:54:57;30.97;40.33
65324;SHT31;51937;48.364;11.378;2022-09-03T12:57:34;31.01;40.03
65324;SHT31;51937;48.364;11.378;2022-09-03T13:00:07;31.06;39.93
65324;SHT31;51937;48.364;11.378;2022-09-03T13:05:44;30.92;39.95
65324;SHT31;51937;48.364;11.378;2022-09-03T13:08:23;30.92;39.99
65324;SHT31;51937;48.364;11.378;2022-09-03T13:10:52;30.97;39.82
65324;SHT31;51937;48.364;11.378;2022-09-03T13:13:27;31.00;39.90
65324;SHT31;51937;48.364;11.378;2022-09-03T13:21:19;31.41;39.03
65324;SHT31;51937;48.364;11.378;2022-09-03T13:29:27;31.72;38.71
65324;SHT31;51937;48.364;11.378;2022-09-03T13:38:12;31.84;38.79
65324;SHT31;51937;48.364;11.378;2022-09-03T13:41:00;31.67;38.97
65324;SHT31;51937;48.364;11.378;2022-09-03T13:48:56;31.25;38.63
65324;SHT31;51937;48.364;11.378;2022-09-03T13:51:49;30.90;38.75
65324;SHT31;51937;48.364;11.378;2022-09-03T13:54:23;30.59;38.94
65324;SHT31;51937;48.364;11.378;2022-09-03T13:56:59;30.32;39.00
65324;SHT31;51937;48.364;11.378;2022-09-03T14:04:41;29.32;40.12
65324;SHT31;51937;48.364;11.378;2022-09-03T14:07:14;28.63;41.14
65324;SHT31;51937;48.364;11.378;2022-09-03T14:09:58;27.81;42.75
65324;SHT31;51937;48.364;11.378;2022-09-03T14:12:36;27.08;44.16
65324;SHT31;51937;48.364;11.378;2022-09-03T14:15:17;26.29;45.33
65324;SHT31;51937;48.364;11.378;2022-09-03T14:17:58;25.61;46.08
65324;SHT31;51937;48.364;11.378;2022-09-03T14:20:28;24.99;46.45
65324;SHT31;51937;48.364;11.378;2022-09-03T14:25:22;24.01;47.33
65324;SHT31;51937;48.364;11.378;2022-09-03T14:27:49;23.62;47.66
65324;SHT31;51937;48.364;11.378;2022-09-03T14:33:09;22.84;48.49
65324;SHT31;51937;48.364;11.378;2022-09-03T14:35:57;22.52;48.91
65324;SHT31;51937;48.364;11.378;2022-09-03T14:41:09;22.04;49.07
65324;SHT31;51937;48.364;11.378;2022-09-03T14:46:48;21.95;49.65
65324;SHT31;51937;48.364;11.378;2022-09-03T14:49:45;21.92;49.59
65324;SHT31;51937;48.364;11.378;2022-09-03T14:57:37;21.93;50.00
65324;SHT31;51937;48.364;11.378;2022-09-03T15:00:43;21.89;50.50
65324;SHT31;51937;48.364;11.378;2022-09-03T15:06:06;21.89;50.70
65324;SHT31;51937;48.364;11.378;2022-09-03T15:11:21;21.92;51.40
65324;SHT31;51937;48.364;11.378;2022-09-03T15:13:51;21.89;51.70
65324;SHT31;51937;48.364;11.378;2022-09-03T15:19:12;21.90;52.12
65324;SHT31;51937;48.364;11.378;2022-09-03T15:25:25;21.96;52.29
65324;SHT31;51937;48.364;11.378;2022-09-03T15:27:45;21.95;52.25
65324;SHT31;51937;48.364;11.378;2022-09-03T15:30:15;21.96;52.29
65324;SHT31;51937;48.364;11.378;2022-09-03T15:38:12;21.85;52.96
65324;SHT31;51937;48.364;11.378;2022-09-03T15:43:16;22.02;53.09
65324;SHT31;51937;48.364;11.378;2022-09-03T15:48:20;22.23;53.23
65324;SHT31;51937;48.364;11.378;2022-09-03T15:51:24;22.34;53.19
65324;SHT31;51937;48.364;11.378;2022-09-03T15:53:55;22.48;53.28
65324;SHT31;51937;48.364;11.378;2022-09-03T15:56:39;22.45;53.46
65324;SHT31;51937;48.364;11.378;2022-09-03T16:01:44;22.51;53.73
65324;SHT31;51937;48.364;11.378;2022-09-03T16:06:54;22.55;53.97
65324;SHT31;51937;48.364;11.378;2022-09-03T16:12:40;22.55;54.14
65324;SHT31;51937;48.364;11.378;2022-09-03T16:15:15;22.67;54.25
65324;SHT31;51937;48.364;11.378;2022-09-03T16:17:52;22.73;54.28
65324;SHT31;51937;48.364;11.378;2022-09-03T16:23:20;23.14;54.21
65324;SHT31;51937;48.364;11.378;2022-09-03T16:25:52;23.48;53.93
65324;SHT31;51937;48.364;11.378;2022-09-03T16:28:27;23.75;53.70
65324;SHT31;51937;48.364;11.378;2022-09-03T16:36:52;24.10;53.32
65324;SHT31;51937;48.364;11.378;2022-09-03T16:39:35;24.27;52.99
65324;SHT31;51937;48.364;11.378;2022-09-03T16:42:35;24.39;52.91
65324;SHT31;51937;48.364;11.378;2022-09-03T16:50:36;24.51;52.51
65324;SHT31;51937;48.364;11.378;2022-09-03T16:53:10;24.58;52.46
65324;SHT31;51937;48.364;11.378;2022-09-03T16:58:34;24.64;52.27
65324;SHT31;51937;48.364;11.378;2022-09-03T17:04:09;24.64;52.06
65324;SHT31;51937;48.364;11.378;2022-09-03T17:12:32;24.44;51.79
65324;SHT31;51937;48.364;11.378;2022-09-03T17:17:56;24.09;52.05
65324;SHT31;51937;48.364;11.378;2022-09-03T17:23:43;23.65;52.29
65324;SHT31;51937;48.364;11.378;2022-09-03T17:29:10;23.19;52.66
65324;SHT31;51937;48.364;11.378;2022-09-03T17:31:59;23.06;52.69
65324;SHT31;51937;48.364;11.378;2022-09-03T17:40:25;22.47;53.15
65324;SHT31;51937;48.364;11.378;2022-09-03T17:43:15;22.27;53.34
65324;SHT31;51937;48.364;11.378;2022-09-03T17:45:45;22.17;53.40
65324;SHT31;51937;48.364;11.378;2022-09-03T17:59:24;21.54;54.02
65324;SHT31;51937;48.364;11.378;2022-09-03T18:07:37;21.16;54.62
65324;SHT31;51937;48.364;11.378;2022-09-03T18:10:16;21.06;54.90
65324;SHT31;51937;48.364;11.378;2022-09-03T18:12:53;20.96;54.96
65324;SHT31;51937;48.364;11.378;2022-09-03T18:15:26;20.89;55.12
65324;SHT31;51937;48.364;11.378;2022-09-03T18:18:20;20.78;55.25
65324;SHT31;51937;48.364;11.378;2022-09-03T18:20:50;20.71;55.22
65324;SHT31;51937;48.364;11.378;2022-09-03T18:26:33;20.44;55.16
65324;SHT31;51937;48.364;11.378;2022-09-03T18:29:41;20.44;55.29
65324;SHT31;51937;48.364;11.378;2022-09-03T18:32:28;20.35;55.33
65324;SHT31;51937;48.364;11.378;2022-09-03T18:35:12;20.33;55.47
65324;SHT31;51937;48.364;11.378;2022-09-03T18:37:57;20.25;55.52
65324;SHT31;51937;48.364;11.378;2022-09-03T18:40:58;20.13;55.85
65324;SHT31;51937;48.364;11.378;2022-09-03T18:44:10;20.04;55.80
65324;SHT31;51937;48.364;11.378;2022-09-03T18:50:18;19.93;55.99
65324;SHT31;51937;48.364;11.378;2022-09-03T18:53:37;19.85;56.02
65324;SHT31;51937;48.364;11.378;2022-09-03T18:56:34;19.83;55.98
65324;SHT31;51937;48.364;11.378;2022-09-03T19:06:02;19.58;56.40
65324;SHT31;51937;48.364;11.378;2022-09-03T19:11:57;19.45;56.54
65324;SHT31;51937;48.364;11.378;2022-09-03T19:14:58;19.45;56.41
65324;SHT31;51937;48.364;11.378;2022-09-03T19:23:58;19.25;56.67
65324;SHT31;51937;48.364;11.378;2022-09-03T19:26:59;19.17;56.86
65324;SHT31;51937;48.364;11.378;2022-09-03T19:32:54;19.08;56.96
65324;SHT31;51937;48.364;11.378;2022-09-03T19:35:57;19.07;56.93
65324;SHT31;51937;48.364;11.378;2022-09-03T19:42:46;18.93;57.07
65324;SHT31;51937;48.364;11.378;2022-09-03T19:45:47;18.90;57.15
65324;SHT31;51937;48.364;11.378;2022-09-03T19:49:08;18.85;57.22
65324;SHT31;51937;48.364;11.378;2022-09-03T19:52:07;18.76;57.20
65324;SHT31;51937;48.364;11.378;2022-09-03T19:54:54;18.75;57.18
65324;SHT31;51937;48.364;11.378;2022-09-03T19:57:41;18.72;57.28
65324;SHT31;51937;48.364;11.378;2022-09-03T20:00:27;18.69;57.32
65324;SHT31;51937;48.364;11.378;2022-09-03T20:03:13;18.63;57.34
65324;SHT31;51937;48.364;11.378;2022-09-03T20:05:58;18.61;57.33
65324;SHT31;51937;48.364;11.378;2022-09-03T20:08:44;18.58;57.37
65324;SHT31;51937;48.364;11.378;2022-09-03T20:11:29;18.55;57.39
65324;SHT31;51937;48.364;11.378;2022-09-03T20:13:57;18.47;57.56
65324;SHT31;51937;48.364;11.378;2022-09-03T20:16:46;18.47;57.63
65324;SHT31;51937;48.364;11.378;2022-09-03T20:22:36;18.37;57.67
65324;SHT31;51937;48.364;11.378;2022-09-03T20:27:51;18.34;57.58
65324;SHT31;51937;48.364;11.378;2022-09-03T20:30:19;18.31;57.72
65324;SHT31;51937;48.364;11.378;2022-09-03T20:33:05;18.31;57.85
65324;SHT31;51937;48.364;11.378;2022-09-03T20:36:05;18.21;57.94
65324;SHT31;51937;48.364;11.378;2022-09-03T20:38:45;18.21;57.83